Kensington, California
Current Conditions -  °F | °C
As of 10:53 PM on Sunday 21 Dec 2014 (Local Time) from KOAK Reporting Station
Light Fog Light Fog  
Wind Chill: 56°   Ceiling: Unl
Heat Index: 56°   Visibility: 8mi
Dew Point: 54°   Wind: 0mph
Humidity: 93%   Direction: NA
Pressure: 30.29"   Gusts: NA
Location:  37.8981°N, 122.279°W
Report Text: KOAK 220653Z 00000KT 8SM MIFG FEW010 13/12 A3029 RMK AO2 SLP257 T01330122
Loading
Personal Weather Stations






























Interactive Weather Map New forecast layout! Learn more

10-Day Weather Forecast

Advertisements
Track Severe Weather on mobile